Time;durP1;ratioP1;P1;durP2;ratioP2;P2;SDS_P1;SDS_P2;PMS_P1;PMS_P2;Temp;Humidity;BMP_temperature;BMP_pressure;BME280_temperature;BME280_humidity;BME280_pressure;Samples;Min_cycle;Max_cycle;Signal;HPM_P1;HPM_P2
2024/01/31 00:01:53;;;;;;;6.23;4.17;;;;;;;;;;6330015;28;20024;-85
2024/01/31 00:04:54;;;;;;;6.80;4.27;;;;;;;;;;6345378;28;20023;-85
2024/01/31 00:07:54;;;;;;;7.63;4.43;;;;;;;;;;6353053;28;20024;-84
2024/01/31 00:10:54;;;;;;;5.97;4.13;;;;;;;;;;6351983;28;20569;-85
2024/01/31 00:13:55;;;;;;;7.03;4.13;;;;;;;;;;6343266;28;20055;-85
2024/01/31 00:16:57;;;;;;;8.27;4.85;;;;;;;;;;6337371;28;20020;-85
2024/01/31 00:19:57;;;;;;;7.22;4.80;;;;;;;;;;6332393;28;20077;-85
2024/01/31 00:22:58;;;;;;;5.63;4.37;;;;;;;;;;6350348;28;20469;-84
2024/01/31 00:25:58;;;;;;;7.40;4.37;;;;;;;;;;6346154;28;20016;-85
2024/01/31 00:28:58;;;;;;;7.83;4.60;;;;;;;;;;6323504;28;20826;-85
2024/01/31 00:31:59;;;;;;;6.97;4.40;;;;;;;;;;6345996;28;20420;-85
2024/01/31 00:34:59;;;;;;;6.90;4.10;;;;;;;;;;6347252;28;20024;-84
2024/01/31 00:37:59;;;;;;;5.67;4.07;;;;;;;;;;6349609;28;20023;-85
2024/01/31 00:41:00;;;;;;;7.27;4.27;;;;;;;;;;6350785;28;20024;-85
2024/01/31 00:44:00;;;;;;;6.40;4.57;;;;;;;;;;6328790;28;20063;-85
2024/01/31 00:47:01;;;;;;;5.60;4.53;;;;;;;;;;6340763;28;20019;-85
2024/01/31 00:50:01;;;;;;;5.37;4.17;;;;;;;;;;6348803;28;20043;-85
2024/01/31 00:53:01;;;;;;;7.00;4.30;;;;;;;;;;6348795;28;20023;-85
2024/01/31 00:56:02;;;;;;;6.80;4.20;;;;;;;;;;6343353;28;20015;-85
2024/01/31 00:59:03;;;;;;;6.87;4.73;;;;;;;;;;6338424;28;20023;-85
2024/01/31 01:02:03;;;;;;;6.57;4.70;;;;;;;;;;6325114;28;20073;-85
2024/01/31 01:05:03;;;;;;;6.57;4.37;;;;;;;;;;6325002;28;20173;-85
2024/01/31 01:08:04;;;;;;;7.23;4.47;;;;;;;;;;6336805;28;20384;-85
2024/01/31 01:11:04;;;;;;;6.67;4.23;;;;;;;;;;6331738;28;20379;-85
2024/01/31 01:14:06;;;;;;;6.67;4.13;;;;;;;;;;6330234;28;20574;-84
2024/01/31 01:17:06;;;;;;;;;;;;;;;;;;6327749;28;20061;-85
2024/01/31 01:20:08;;;;;;;6.60;3.30;;;;;;;;;;6346722;28;20291;-85
2024/01/31 01:23:08;;;;;;;5.70;3.65;;;;;;;;;;6335127;28;20051;-85
2024/01/31 01:26:08;;;;;;;6.33;3.97;;;;;;;;;;6349472;28;20057;-88
2024/01/31 01:29:09;;;;;;;6.30;4.17;;;;;;;;;;6344594;28;20027;-85
2024/01/31 01:32:09;;;;;;;7.13;4.00;;;;;;;;;;6309748;28;20119;-85
2024/01/31 01:35:09;;;;;;;5.77;4.37;;;;;;;;;;6347888;28;20135;-85
2024/01/31 01:38:10;;;;;;;9.20;4.87;;;;;;;;;;6330706;28;20016;-84
2024/01/31 01:41:10;;;;;;;9.27;4.70;;;;;;;;;;6329404;28;20065;-85
2024/01/31 01:44:14;;;;;;;7.90;4.80;;;;;;;;;;6345268;28;20031;-84
2024/01/31 01:47:15;;;;;;;6.00;4.63;;;;;;;;;;6329928;28;20051;-84
2024/01/31 01:50:16;;;;;;;7.10;5.05;;;;;;;;;;6330686;28;20034;-85
2024/01/31 01:53:16;;;;;;;7.10;4.25;;;;;;;;;;6349302;28;20023;-85
2024/01/31 01:56:17;;;;;;;5.90;4.50;;;;;;;;;;6349659;28;20049;-85
2024/01/31 01:59:18;;;;;;;6.22;4.53;;;;;;;;;;6345826;28;20246;-84
2024/01/31 02:02:18;;;;;;;7.70;5.03;;;;;;;;;;6336328;28;20380;-85
2024/01/31 02:05:18;;;;;;;7.43;5.03;;;;;;;;;;6341320;28;20577;-84
2024/01/31 02:08:19;;;;;;;7.60;5.07;;;;;;;;;;6347519;28;20064;-85
2024/01/31 02:11:19;;;;;;;7.00;4.77;;;;;;;;;;6349892;28;20095;-85
2024/01/31 02:14:19;;;;;;;8.30;5.20;;;;;;;;;;6330254;28;20366;-85
2024/01/31 02:17:20;;;;;;;8.63;5.23;;;;;;;;;;6314872;28;20019;-82
2024/01/31 02:20:21;;;;;;;6.37;4.67;;;;;;;;;;6344474;28;20050;-83
2024/01/31 02:23:22;;;;;;;7.15;4.80;;;;;;;;;;6349572;28;20039;-82
2024/01/31 02:26:22;;;;;;;8.52;5.20;;;;;;;;;;6348092;28;20115;-82
2024/01/31 02:29:22;;;;;;;7.23;5.03;;;;;;;;;;6332226;28;20027;-82
2024/01/31 02:32:22;;;;;;;6.57;5.13;;;;;;;;;;6331697;28;20030;-82
2024/01/31 02:35:26;;;;;;;7.17;4.90;;;;;;;;;;6345392;28;20076;-83
2024/01/31 02:38:26;;;;;;;7.03;4.65;;;;;;;;;;6348318;28;20028;-82
2024/01/31 02:41:26;;;;;;;8.50;5.17;;;;;;;;;;6347496;28;20372;-82
2024/01/31 02:44:26;;;;;;;8.17;5.20;;;;;;;;;;6342685;28;20164;-82
2024/01/31 02:47:27;;;;;;;7.33;5.17;;;;;;;;;;6330148;28;20035;-82
2024/01/31 02:50:30;;;;;;;6.30;4.87;;;;;;;;;;6337639;28;20114;-82
2024/01/31 02:53:30;;;;;;;7.38;4.88;;;;;;;;;;6327792;28;20050;-82
2024/01/31 02:56:30;;;;;;;6.73;5.30;;;;;;;;;;6368896;28;20011;-82
2024/01/31 02:59:31;;;;;;;8.17;5.00;;;;;;;;;;6328100;28;20024;-82
2024/01/31 03:02:31;;;;;;;6.43;4.73;;;;;;;;;;6328133;28;20065;-82
2024/01/31 03:05:31;;;;;;;8.73;5.70;;;;;;;;;;6343606;28;20110;-82
2024/01/31 03:08:31;;;;;;;7.03;4.97;;;;;;;;;;6352402;28;20054;-82
2024/01/31 03:11:31;;;;;;;10.10;5.43;;;;;;;;;;6333046;28;20016;-82
2024/01/31 03:14:32;;;;;;;7.20;5.43;;;;;;;;;;6331921;28;20040;-82
2024/01/31 03:17:35;;;;;;;7.67;4.90;;;;;;;;;;6334766;28;20015;-83
2024/01/31 03:20:35;;;;;;;8.23;5.18;;;;;;;;;;6349652;28;20028;-82
2024/01/31 03:23:36;;;;;;;7.00;5.20;;;;;;;;;;6338702;28;20438;-82
2024/01/31 03:26:36;;;;;;;7.67;5.33;;;;;;;;;;6351993;28;20063;-85
2024/01/31 03:29:37;;;;;;;8.70;4.87;;;;;;;;;;6345019;28;20027;-83
2024/01/31 03:32:37;;;;;;;7.17;5.27;;;;;;;;;;6326464;28;20028;-83
2024/01/31 03:35:37;;;;;;;7.73;5.23;;;;;;;;;;6350072;28;20035;-83
2024/01/31 03:38:38;;;;;;;8.47;5.23;;;;;;;;;;6351802;28;20459;-82
2024/01/31 03:41:44;;;;;;;7.73;5.13;;;;;;;;;;6337512;28;20023;-82
2024/01/31 03:44:45;;;;;;;8.32;5.05;;;;;;;;;;6318860;28;20115;-83
2024/01/31 03:47:45;;;;;;;7.63;5.03;;;;;;;;;;6318761;28;20020;-83
2024/01/31 03:50:45;;;;;;;8.70;5.47;;;;;;;;;;6333033;28;20104;-83
2024/01/31 03:53:46;;;;;;;7.70;4.60;;;;;;;;;;6350368;28;20020;-83
2024/01/31 03:56:46;;;;;;;6.83;4.93;;;;;;;;;;6352123;28;20069;-82
2024/01/31 03:59:47;;;;;;;7.47;4.83;;;;;;;;;;6350256;28;20030;-83
2024/01/31 04:02:47;;;;;;;7.95;4.93;;;;;;;;;;6351153;28;20026;-83
2024/01/31 04:05:48;;;;;;;6.47;4.67;;;;;;;;;;6349821;28;20515;-82
2024/01/31 04:08:49;;;;;;;7.30;4.67;;;;;;;;;;6350133;28;20023;-82
2024/01/31 04:11:49;;;;;;;7.63;4.73;;;;;;;;;;6349003;28;20027;-82
2024/01/31 04:14:49;;;;;;;8.60;5.37;;;;;;;;;;6348109;28;20023;-82
2024/01/31 04:17:50;;;;;;;8.23;5.30;;;;;;;;;;6350337;28;20524;-82
2024/01/31 04:20:50;;;;;;;8.33;4.73;;;;;;;;;;6348081;28;20023;-82
2024/01/31 04:23:50;;;;;;;6.87;4.80;;;;;;;;;;6349574;28;20103;-82
2024/01/31 04:26:51;;;;;;;7.00;4.53;;;;;;;;;;6351055;28;20030;-82
2024/01/31 04:29:52;;;;;;;8.07;4.37;;;;;;;;;;6348319;28;20012;-82
2024/01/31 04:32:52;;;;;;;6.87;5.03;;;;;;;;;;6348536;28;20277;-82
2024/01/31 04:35:52;;;;;;;6.50;4.43;;;;;;;;;;6347268;28;20022;-82
2024/01/31 04:38:52;;;;;;;7.27;4.90;;;;;;;;;;6349979;28;20019;-82
2024/01/31 04:41:52;;;;;;;7.87;4.80;;;;;;;;;;6349866;28;20034;-82
2024/01/31 04:44:53;;;;;;;6.13;4.60;;;;;;;;;;6349075;28;20023;-82
2024/01/31 04:47:53;;;;;;;5.70;4.23;;;;;;;;;;6350192;28;20456;-82
2024/01/31 04:50:53;;;;;;;7.70;4.67;;;;;;;;;;6348486;28;20012;-83
2024/01/31 04:53:54;;;;;;;6.43;4.53;;;;;;;;;;6329034;28;20089;-83
2024/01/31 04:56:54;;;;;;;6.70;4.70;;;;;;;;;;6350601;28;20061;-82
2024/01/31 04:59:54;;;;;;;7.10;4.93;;;;;;;;;;6349601;28;20034;-82
2024/01/31 05:02:55;;;;;;;9.33;5.23;;;;;;;;;;6346650;28;20072;-82
2024/01/31 05:05:55;;;;;;;6.27;4.43;;;;;;;;;;6347438;28;20051;-82
2024/01/31 05:08:55;;;;;;;6.97;4.60;;;;;;;;;;6331026;28;20015;-83
2024/01/31 05:11:55;;;;;;;6.33;4.80;;;;;;;;;;6349264;28;20036;-82
2024/01/31 05:14:56;;;;;;;7.83;5.27;;;;;;;;;;6332558;28;20494;-82
2024/01/31 05:17:56;;;;;;;6.97;4.93;;;;;;;;;;6340189;28;20425;-82
2024/01/31 05:20:59;;;;;;;6.90;4.70;;;;;;;;;;6348844;28;20020;-82
2024/01/31 05:23:59;;;;;;;6.45;4.97;;;;;;;;;;6348676;27;20030;-82
2024/01/31 05:27:03;;;;;;;6.23;4.43;;;;;;;;;;6348271;28;20024;-82
2024/01/31 05:30:04;;;;;;;7.95;5.18;;;;;;;;;;6346046;28;20427;-83
2024/01/31 05:33:04;;;;;;;7.32;5.18;;;;;;;;;;6350240;28;20061;-83
2024/01/31 05:36:05;;;;;;;6.90;4.73;;;;;;;;;;6349825;28;20040;-83
2024/01/31 05:39:05;;;;;;;6.87;4.60;;;;;;;;;;6350503;28;20536;-82
2024/01/31 05:42:06;;;;;;;7.03;5.13;;;;;;;;;;6351197;28;20031;-83
2024/01/31 05:45:06;;;;;;;6.80;4.97;;;;;;;;;;6349583;28;20023;-82
2024/01/31 05:48:07;;;;;;;7.17;4.93;;;;;;;;;;6352377;28;20345;-85
2024/01/31 05:51:07;;;;;;;7.87;4.93;;;;;;;;;;6329034;28;20456;-85
2024/01/31 05:54:07;;;;;;;7.50;4.77;;;;;;;;;;6319211;28;20111;-85
2024/01/31 05:57:07;;;;;;;9.87;5.03;;;;;;;;;;6348723;28;20019;-85
2024/01/31 06:00:10;;;;;;;7.73;4.83;;;;;;;;;;6348168;28;20024;-85
2024/01/31 06:03:10;;;;;;;7.35;4.90;;;;;;;;;;6319571;28;20122;-85
2024/01/31 06:06:11;;;;;;;7.30;4.87;;;;;;;;;;6344831;28;20028;-85
2024/01/31 06:09:12;;;;;;;7.67;4.90;;;;;;;;;;6348564;28;20443;-84
2024/01/31 06:12:12;;;;;;;6.63;4.68;;;;;;;;;;6342779;28;20093;-85
2024/01/31 06:15:13;;;;;;;7.60;5.10;;;;;;;;;;6346985;28;20440;-84
2024/01/31 06:18:15;;;;;;;8.10;4.93;;;;;;;;;;6346650;28;20015;-84
2024/01/31 06:21:16;;;;;;;7.88;5.15;;;;;;;;;;6344096;28;20653;-85
2024/01/31 06:24:16;;;;;;;7.13;4.67;;;;;;;;;;6342251;28;20031;-87
2024/01/31 06:27:16;;;;;;;9.07;5.10;;;;;;;;;;6339176;28;20015;-84
2024/01/31 06:30:19;;;;;;;7.80;5.13;;;;;;;;;;6341921;28;20031;-84
2024/01/31 06:33:27;;;;;;;8.55;5.80;;;;;;;;;;6343484;28;20011;-86
2024/01/31 06:36:27;;;;;;;7.80;5.45;;;;;;;;;;6328799;28;20056;-84
2024/01/31 06:39:27;;;;;;;7.73;5.53;;;;;;;;;;6347174;28;20015;-85
2024/01/31 06:42:28;;;;;;;9.20;5.53;;;;;;;;;;6347592;28;20032;-86
2024/01/31 06:45:28;;;;;;;7.47;5.37;;;;;;;;;;6347612;28;20026;-82
2024/01/31 06:48:28;;;;;;;6.60;4.77;;;;;;;;;;6335475;28;20071;-83
2024/01/31 06:51:29;;;;;;;6.97;4.83;;;;;;;;;;6334476;28;20369;-85
2024/01/31 06:54:29;;;;;;;7.40;5.27;;;;;;;;;;6339131;28;20107;-84
2024/01/31 06:57:30;;;;;;;8.87;5.57;;;;;;;;;;6341731;28;20023;-84
2024/01/31 07:00:30;;;;;;;8.00;5.03;;;;;;;;;;6328536;28;20065;-79
2024/01/31 07:03:31;;;;;;;7.87;5.07;;;;;;;;;;6346692;28;20035;-82
2024/01/31 07:06:31;;;;;;;7.33;5.00;;;;;;;;;;6344624;28;20029;-84
2024/01/31 07:09:32;;;;;;;7.87;4.70;;;;;;;;;;6341342;28;20020;-83
2024/01/31 07:12:32;;;;;;;10.43;5.40;;;;;;;;;;6346212;28;20082;-86
2024/01/31 07:15:33;;;;;;;7.43;5.63;;;;;;;;;;6329172;28;20034;-84
2024/01/31 07:18:33;;;;;;;6.93;4.97;;;;;;;;;;6344977;28;20048;-84
2024/01/31 07:21:33;;;;;;;7.97;5.30;;;;;;;;;;6346291;28;20049;-84
2024/01/31 07:24:34;;;;;;;8.23;5.03;;;;;;;;;;6345252;28;20115;-84
2024/01/31 07:27:37;;;;;;;11.50;5.82;;;;;;;;;;6345929;28;20055;-84
2024/01/31 07:30:38;;;;;;;8.70;5.75;;;;;;;;;;6346364;28;20023;-84
2024/01/31 07:33:38;;;;;;;8.57;5.53;;;;;;;;;;6346075;28;20049;-84
2024/01/31 07:36:39;;;;;;;9.87;5.27;;;;;;;;;;6345212;28;20123;-84
2024/01/31 07:39:39;;;;;;;8.57;4.93;;;;;;;;;;6346776;28;20101;-84
2024/01/31 07:42:39;;;;;;;7.60;5.17;;;;;;;;;;6344311;28;20432;-84
2024/01/31 07:45:39;;;;;;;7.80;4.80;;;;;;;;;;6346123;28;20024;-84
2024/01/31 07:48:40;;;;;;;6.30;4.70;;;;;;;;;;6327561;28;20059;-87
2024/01/31 07:51:40;;;;;;;8.17;4.97;;;;;;;;;;6345326;28;20058;-85
2024/01/31 07:54:41;;;;;;;7.50;5.10;;;;;;;;;;6348342;28;20477;-86
2024/01/31 07:57:41;;;;;;;7.90;5.57;;;;;;;;;;6348487;28;20023;-86
2024/01/31 08:00:41;;;;;;;9.20;5.03;;;;;;;;;;6348114;28;20018;-84
2024/01/31 08:03:42;;;;;;;8.83;5.33;;;;;;;;;;6322257;28;20527;-82
2024/01/31 08:06:42;;;;;;;7.60;5.20;;;;;;;;;;6345039;28;20110;-83
2024/01/31 08:09:42;;;;;;;8.97;5.03;;;;;;;;;;6349689;28;20023;-83
2024/01/31 08:12:44;;;;;;;7.37;4.90;;;;;;;;;;6347392;28;20046;-82
2024/01/31 08:15:44;;;;;;;9.07;4.90;;;;;;;;;;6350641;28;20024;-87
2024/01/31 08:18:44;;;;;;;9.17;5.83;;;;;;;;;;6348021;28;20020;-82
2024/01/31 08:21:45;;;;;;;8.83;5.70;;;;;;;;;;6325870;28;20054;-85
2024/01/31 08:24:45;;;;;;;7.70;5.37;;;;;;;;;;6333578;28;20026;-83
2024/01/31 08:27:48;;;;;;;9.80;5.30;;;;;;;;;;6348740;28;20019;-83
2024/01/31 08:30:48;;;;;;;9.23;5.82;;;;;;;;;;6328971;28;20027;-84
2024/01/31 08:33:49;;;;;;;8.80;5.50;;;;;;;;;;6346054;28;20031;-86
2024/01/31 08:36:49;;;;;;;8.80;6.07;;;;;;;;;;6352071;28;20038;-84
2024/01/31 08:39:49;;;;;;;7.97;5.90;;;;;;;;;;6339490;28;20040;-85
2024/01/31 08:42:50;;;;;;;7.67;5.07;;;;;;;;;;6351345;28;20023;-85
2024/01/31 08:45:50;;;;;;;8.67;5.43;;;;;;;;;;6332993;28;20427;-85
2024/01/31 08:48:51;;;;;;;7.40;5.60;;;;;;;;;;6331769;28;20008;-85
2024/01/31 08:51:53;;;;;;;8.70;5.00;;;;;;;;;;6317960;28;20468;-85
2024/01/31 08:54:53;;;;;;;9.55;5.80;;;;;;;;;;6322772;28;20081;-85
2024/01/31 08:57:54;;;;;;;8.10;5.93;;;;;;;;;;6310554;28;20109;-85
2024/01/31 09:00:55;;;;;;;8.63;5.60;;;;;;;;;;6334447;28;20037;-85
2024/01/31 09:03:58;;;;;;;;;;;;;;;;;;6346410;28;20026;-85
2024/01/31 09:06:58;;;;;;;7.20;4.75;;;;;;;;;;6328103;28;19912;-85
2024/01/31 09:09:59;;;;;;;8.57;5.53;;;;;;;;;;6347341;28;20085;-85
2024/01/31 09:12:59;;;;;;;7.10;4.73;;;;;;;;;;6341684;28;20452;-85
2024/01/31 09:16:00;;;;;;;7.80;5.50;;;;;;;;;;6339297;28;20022;-85
2024/01/31 09:19:01;;;;;;;8.80;5.73;;;;;;;;;;6342259;28;20036;-87
2024/01/31 09:22:01;;;;;;;7.35;5.60;;;;;;;;;;5972228;28;10000388;-86
2024/01/31 09:25:02;;;;;;;8.10;5.63;;;;;;;;;;6345951;28;20020;-88
2024/01/31 09:28:03;;;;;;;;;;;;;;;;;;6353680;28;20544;-89
2024/01/31 09:31:04;;;;;;;6.13;4.25;;;;;;;;;;6347668;28;20006;-88
2024/01/31 09:34:04;;;;;;;7.37;5.03;;;;;;;;;;6321321;28;20031;-87
2024/01/31 09:37:05;;;;;;;8.93;5.17;;;;;;;;;;6325029;28;20046;-86
2024/01/31 09:40:06;;;;;;;6.83;5.17;;;;;;;;;;6352848;28;20024;-86
2024/01/31 09:43:06;;;;;;;8.88;4.90;;;;;;;;;;6352030;28;20036;-86
2024/01/31 09:46:07;;;;;;;6.50;4.67;;;;;;;;;;6332527;28;20537;-83
2024/01/31 09:49:07;;;;;;;7.30;4.83;;;;;;;;;;6347761;28;20028;-84
2024/01/31 09:52:09;;;;;;;6.23;4.50;;;;;;;;;;6347000;28;20084;-83
2024/01/31 09:55:11;;;;;;;8.43;5.15;;;;;;;;;;6347761;28;20039;-83
2024/01/31 09:58:11;;;;;;;8.20;5.20;;;;;;;;;;6348744;28;20027;-83
2024/01/31 10:01:12;;;;;;;6.37;4.87;;;;;;;;;;6342906;28;20038;-83
2024/01/31 10:04:14;;;;;;;6.87;4.70;;;;;;;;;;6343606;28;20076;-84
2024/01/31 10:07:24;;;;;;;7.53;5.07;;;;;;;;;;6348412;28;20020;-83
2024/01/31 10:10:25;;;;;;;6.68;4.78;;;;;;;;;;6335870;28;20099;-83
2024/01/31 10:13:25;;;;;;;7.33;4.70;;;;;;;;;;6337241;28;20124;-83
2024/01/31 10:16:25;;;;;;;7.00;4.77;;;;;;;;;;6347769;28;20258;-83
2024/01/31 10:19:26;;;;;;;6.80;4.67;;;;;;;;;;6329186;28;20023;-84
2024/01/31 10:22:26;;;;;;;6.23;4.80;;;;;;;;;;6316983;28;20032;-84
2024/01/31 10:25:26;;;;;;;5.80;4.40;;;;;;;;;;6342027;28;20099;-84
2024/01/31 10:28:28;;;;;;;5.80;4.43;;;;;;;;;;6347232;28;20102;-84
2024/01/31 10:31:28;;;;;;;5.97;4.60;;;;;;;;;;6343731;28;20030;-84
2024/01/31 10:34:29;;;;;;;6.20;4.60;;;;;;;;;;6315294;28;20471;-84
2024/01/31 10:37:30;;;;;;;6.47;4.77;;;;;;;;;;6325776;28;20455;-84
2024/01/31 10:40:33;;;;;;;6.13;4.33;;;;;;;;;;6349915;28;20023;-83
2024/01/31 10:43:34;;;;;;;6.00;4.43;;;;;;;;;;6349380;28;20062;-84
2024/01/31 10:46:34;;;;;;;5.80;4.55;;;;;;;;;;6350444;28;20461;-84
2024/01/31 10:49:34;;;;;;;6.23;4.27;;;;;;;;;;6333145;28;20019;-86
2024/01/31 10:52:35;;;;;;;6.83;4.57;;;;;;;;;;6316147;28;20528;-84
2024/01/31 10:55:37;;;;;;;6.80;5.03;;;;;;;;;;6342409;28;20019;-85
2024/01/31 10:58:37;;;;;;;7.93;5.13;;;;;;;;;;6346225;28;20020;-84
2024/01/31 11:01:37;;;;;;;6.57;4.97;;;;;;;;;;6347654;28;20357;-83
2024/01/31 11:04:38;;;;;;;5.73;4.73;;;;;;;;;;6349963;28;20064;-82
2024/01/31 11:07:45;;;;;;;8.15;5.57;;;;;;;;;;6339543;28;20039;-83
2024/01/31 11:10:46;;;;;;;8.25;5.88;;;;;;;;;;6345903;28;20032;-82
2024/01/31 11:13:46;;;;;;;8.43;5.90;;;;;;;;;;6347240;28;20561;-82
2024/01/31 11:16:46;;;;;;;9.03;6.07;;;;;;;;;;6346012;28;20015;-80
2024/01/31 11:19:46;;;;;;;8.53;6.47;;;;;;;;;;6344566;28;20165;-81
2024/01/31 11:22:47;;;;;;;9.80;6.80;;;;;;;;;;6334585;28;20096;-82
2024/01/31 11:25:47;;;;;;;10.67;6.37;;;;;;;;;;6333418;27;20385;-81
2024/01/31 11:28:49;;;;;;;10.40;7.20;;;;;;;;;;6341677;27;20082;-82
2024/01/31 11:31:50;;;;;;;9.55;6.82;;;;;;;;;;6322406;28;20055;-81
2024/01/31 11:35:06;;;;;;;8.60;6.28;;;;;;;;;;6327043;28;20054;-82
2024/01/31 11:38:08;;;;;;;9.93;7.07;;;;;;;;;;6342126;28;20028;-79
2024/01/31 11:41:08;;;;;;;9.48;6.82;;;;;;;;;;6345911;28;20015;-79
2024/01/31 11:44:08;;;;;;;9.07;6.60;;;;;;;;;;6350972;28;20027;-79
2024/01/31 11:47:09;;;;;;;9.17;7.00;;;;;;;;;;6351170;28;20027;-79
2024/01/31 11:50:10;;;;;;;9.05;7.13;;;;;;;;;;6349799;28;20007;-79
2024/01/31 11:53:10;;;;;;;9.77;7.50;;;;;;;;;;6351383;28;20122;-79
2024/01/31 11:56:10;;;;;;;10.47;7.60;;;;;;;;;;6344434;28;20445;-81
2024/01/31 11:59:10;;;;;;;10.47;7.23;;;;;;;;;;6349023;28;20031;-80
2024/01/31 12:02:11;;;;;;;9.50;7.73;;;;;;;;;;6326104;28;20027;-80
2024/01/31 12:05:11;;;;;;;9.70;7.87;;;;;;;;;;6346512;28;20028;-81
2024/01/31 12:08:16;;;;;;;11.87;7.90;;;;;;;;;;6350832;28;20023;-81
2024/01/31 12:11:17;;;;;;;12.98;8.05;;;;;;;;;;6349465;28;20546;-81
2024/01/31 12:14:17;;;;;;;11.90;8.70;;;;;;;;;;6312937;28;20052;-82
2024/01/31 12:17:27;;;;;;;12.83;9.40;;;;;;;;;;6339997;28;20376;-81
2024/01/31 12:20:28;;;;;;;14.65;8.57;;;;;;;;;;6323119;28;20409;-82
2024/01/31 12:23:29;;;;;;;13.32;8.70;;;;;;;;;;6332461;28;20030;-82
2024/01/31 12:26:29;;;;;;;11.13;8.43;;;;;;;;;;6331302;28;20034;-82
2024/01/31 12:29:30;;;;;;;11.30;7.90;;;;;;;;;;6337517;28;20020;-81
2024/01/31 12:32:30;;;;;;;11.50;8.13;;;;;;;;;;6325705;28;20024;-81
2024/01/31 12:35:30;;;;;;;12.00;9.00;;;;;;;;;;6300736;28;20029;-81
2024/01/31 12:38:31;;;;;;;11.37;8.67;;;;;;;;;;6299396;28;20498;-81
2024/01/31 12:41:31;;;;;;;11.33;8.33;;;;;;;;;;6311326;28;20027;-81
2024/01/31 12:44:31;;;;;;;11.70;8.03;;;;;;;;;;6312472;28;20024;-81
2024/01/31 12:47:32;;;;;;;11.10;8.43;;;;;;;;;;6304582;28;20024;-79
2024/01/31 12:50:32;;;;;;;11.93;8.37;;;;;;;;;;6305783;28;20095;-80
2024/01/31 12:53:32;;;;;;;10.37;7.77;;;;;;;;;;6315817;28;20032;-79
2024/01/31 12:56:32;;;;;;;9.20;7.50;;;;;;;;;;6319087;28;20031;-79
2024/01/31 12:59:33;;;;;;;10.67;8.13;;;;;;;;;;6329443;28;20026;-79
2024/01/31 13:02:33;;;;;;;11.40;8.45;;;;;;;;;;6314450;28;20427;-80
2024/01/31 13:05:34;;;;;;;11.73;7.73;;;;;;;;;;6312773;28;20024;-79
2024/01/31 13:08:35;;;;;;;8.40;7.30;;;;;;;;;;6316820;28;20023;-82
2024/01/31 13:11:36;;;;;;;8.95;7.47;;;;;;;;;;6317661;28;20028;-83
2024/01/31 13:14:36;;;;;;;9.35;7.60;;;;;;;;;;6315920;28;20056;-82
2024/01/31 13:17:37;;;;;;;10.35;8.02;;;;;;;;;;6311547;28;20027;-83
2024/01/31 13:20:37;;;;;;;9.30;7.80;;;;;;;;;;6321629;28;20413;-83
2024/01/31 13:23:39;;;;;;;9.87;7.80;;;;;;;;;;6319022;28;20592;-82
2024/01/31 13:26:39;;;;;;;10.45;7.57;;;;;;;;;;6320832;28;20396;-84
2024/01/31 13:29:39;;;;;;;10.93;7.70;;;;;;;;;;6314523;28;20108;-84
2024/01/31 13:32:40;;;;;;;9.83;7.67;;;;;;;;;;6317874;28;20015;-82
2024/01/31 13:35:40;;;;;;;8.80;7.50;;;;;;;;;;6335926;28;20028;-81
2024/01/31 13:38:40;;;;;;;10.73;8.33;;;;;;;;;;6317589;28;20092;-83
2024/01/31 13:41:41;;;;;;;9.53;8.00;;;;;;;;;;6321843;28;20095;-81
2024/01/31 13:44:41;;;;;;;8.88;7.55;;;;;;;;;;6318036;28;20081;-82
2024/01/31 13:47:42;;;;;;;11.50;6.93;;;;;;;;;;6326783;28;20024;-82
2024/01/31 13:50:42;;;;;;;10.13;7.37;;;;;;;;;;6335199;28;20024;-81
2024/01/31 13:53:42;;;;;;;9.67;7.30;;;;;;;;;;6301596;28;20086;-81
2024/01/31 13:56:43;;;;;;;11.63;7.90;;;;;;;;;;6309760;28;20031;-81
2024/01/31 13:59:43;;;;;;;9.52;7.40;;;;;;;;;;6317763;28;20086;-80
2024/01/31 14:02:44;;;;;;;9.43;7.17;;;;;;;;;;6316532;28;20032;-80
2024/01/31 14:05:44;;;;;;;8.87;7.23;;;;;;;;;;6307517;28;20484;-80
2024/01/31 14:08:44;;;;;;;8.37;6.83;;;;;;;;;;5948943;28;10000312;-80
2024/01/31 14:11:44;;;;;;;9.07;7.47;;;;;;;;;;6306417;28;20123;-80
2024/01/31 14:14:45;;;;;;;9.43;7.50;;;;;;;;;;6311164;28;20485;-80
2024/01/31 14:17:45;;;;;;;9.20;7.83;;;;;;;;;;6315824;28;20021;-80
2024/01/31 14:20:47;;;;;;;10.50;7.93;;;;;;;;;;6310423;28;20424;-80
2024/01/31 14:23:47;;;;;;;;;;;;;;;;;;6316833;28;20104;-80
2024/01/31 14:26:47;;;;;;;8.10;6.30;;;;;;;;;;6314355;28;19913;-80
2024/01/31 14:29:47;;;;;;;9.73;6.80;;;;;;;;;;6302865;28;20047;-80
2024/01/31 14:32:48;;;;;;;8.33;6.60;;;;;;;;;;6316150;28;20465;-80
2024/01/31 14:35:48;;;;;;;8.90;7.07;;;;;;;;;;6311083;28;20503;-80
2024/01/31 14:38:48;;;;;;;11.87;6.87;;;;;;;;;;6312574;28;20090;-80
2024/01/31 14:41:48;;;;;;;7.97;6.43;;;;;;;;;;6312409;28;20030;-80
2024/01/31 14:44:49;;;;;;;8.40;6.87;;;;;;;;;;6318288;28;20094;-80
2024/01/31 14:47:49;;;;;;;11.40;6.40;;;;;;;;;;6315350;28;20465;-80
2024/01/31 14:50:49;;;;;;;10.00;7.43;;;;;;;;;;6294592;28;20103;-80
2024/01/31 14:53:51;;;;;;;11.00;7.43;;;;;;;;;;6304450;28;20017;-80
2024/01/31 14:56:52;;;;;;;8.90;7.10;;;;;;;;;;6316520;28;20028;-80
2024/01/31 14:59:52;;;;;;;8.23;7.30;;;;;;;;;;6307946;28;20025;-80
2024/01/31 15:02:52;;;;;;;10.43;7.23;;;;;;;;;;6314727;28;20038;-80
2024/01/31 15:05:53;;;;;;;9.37;6.73;;;;;;;;;;6321437;28;20020;-80
2024/01/31 15:08:53;;;;;;;8.50;7.13;;;;;;;;;;6327023;28;20059;-81
2024/01/31 15:11:56;;;;;;;10.50;7.30;;;;;;;;;;6328500;28;20062;-80
2024/01/31 15:14:56;;;;;;;11.10;7.20;;;;;;;;;;6325861;28;20020;-80
2024/01/31 15:17:56;;;;;;;9.93;7.13;;;;;;;;;;6326149;28;20028;-79
2024/01/31 15:20:56;;;;;;;11.03;7.30;;;;;;;;;;6324569;28;20028;-79
2024/01/31 15:23:57;;;;;;;8.37;7.07;;;;;;;;;;6323938;28;20042;-79
2024/01/31 15:26:57;;;;;;;8.83;7.13;;;;;;;;;;6325916;28;20020;-79
2024/01/31 15:29:57;;;;;;;8.30;6.60;;;;;;;;;;6323784;28;20031;-79
2024/01/31 15:32:58;;;;;;;8.97;6.63;;;;;;;;;;6323181;28;20501;-79
2024/01/31 15:35:58;;;;;;;11.07;7.67;;;;;;;;;;6323632;28;20012;-79
2024/01/31 15:39:00;;;;;;;11.10;8.50;;;;;;;;;;6325593;28;20028;-79
2024/01/31 15:42:00;;;;;;;11.77;7.97;;;;;;;;;;6327588;28;20037;-81
2024/01/31 15:45:01;;;;;;;9.80;7.73;;;;;;;;;;6321860;28;20037;-80
2024/01/31 15:48:01;;;;;;;9.53;7.13;;;;;;;;;;6298620;28;20047;-80
2024/01/31 15:51:01;;;;;;;11.67;7.60;;;;;;;;;;6300876;28;20024;-79
2024/01/31 15:54:02;;;;;;;11.47;7.53;;;;;;;;;;6315903;28;20020;-79
2024/01/31 15:57:02;;;;;;;8.57;6.80;;;;;;;;;;6326201;28;20024;-80
2024/01/31 16:00:03;;;;;;;11.75;7.75;;;;;;;;;;6325666;28;20020;-80
2024/01/31 16:03:03;;;;;;;10.20;7.53;;;;;;;;;;6309659;28;20036;-81
2024/01/31 16:06:04;;;;;;;8.90;7.23;;;;;;;;;;6309792;28;20034;-80
2024/01/31 16:09:04;;;;;;;8.67;6.47;;;;;;;;;;6304226;28;20020;-79
2024/01/31 16:12:05;;;;;;;8.10;6.87;;;;;;;;;;6313048;28;20048;-79
2024/01/31 16:15:05;;;;;;;8.63;6.37;;;;;;;;;;6324563;28;20035;-78
2024/01/31 16:18:08;;;;;;;8.23;6.80;;;;;;;;;;6326343;28;20020;-78
2024/01/31 16:21:08;;;;;;;11.85;7.28;;;;;;;;;;6301585;28;20032;-79
2024/01/31 16:24:08;;;;;;;13.30;7.07;;;;;;;;;;6320353;28;20086;-79
2024/01/31 16:27:09;;;;;;;9.10;6.80;;;;;;;;;;6316882;28;20439;-81
2024/01/31 16:30:10;;;;;;;8.10;6.70;;;;;;;;;;6322417;28;20066;-82
2024/01/31 16:33:10;;;;;;;7.82;6.18;;;;;;;;;;6314350;28;21166;-81
2024/01/31 16:36:25;;;;;;;10.53;6.83;;;;;;;;;;6318115;28;20024;-81
2024/01/31 16:39:25;;;;;;;8.40;7.07;;;;;;;;;;6310619;28;20028;-81
2024/01/31 16:42:26;;;;;;;8.07;6.33;;;;;;;;;;6326780;28;20026;-81
2024/01/31 16:45:26;;;;;;;9.53;6.77;;;;;;;;;;6322580;28;20036;-81
2024/01/31 16:48:27;;;;;;;10.57;6.83;;;;;;;;;;6307980;28;20012;-82
2024/01/31 16:51:27;;;;;;;8.37;6.97;;;;;;;;;;6308745;28;20030;-82
2024/01/31 16:54:27;;;;;;;9.07;6.87;;;;;;;;;;6318692;28;20024;-82
2024/01/31 16:57:28;;;;;;;9.10;6.47;;;;;;;;;;6312726;28;20372;-81
2024/01/31 17:00:28;;;;;;;9.93;7.23;;;;;;;;;;6319572;28;20460;-81
2024/01/31 17:03:28;;;;;;;10.00;7.13;;;;;;;;;;6310255;28;20039;-81
2024/01/31 17:06:28;;;;;;;9.10;6.17;;;;;;;;;;6315806;28;20142;-81
2024/01/31 17:09:29;;;;;;;8.43;6.60;;;;;;;;;;6316953;28;20464;-81
2024/01/31 17:12:30;;;;;;;10.17;6.97;;;;;;;;;;6320238;28;20412;-81
2024/01/31 17:15:31;;;;;;;11.20;6.47;;;;;;;;;;6328903;28;20468;-80
2024/01/31 17:18:31;;;;;;;9.90;7.50;;;;;;;;;;6315790;28;20096;-79
2024/01/31 17:21:31;;;;;;;10.30;6.80;;;;;;;;;;6323007;28;20023;-80
2024/01/31 17:24:31;;;;;;;10.57;7.60;;;;;;;;;;6316339;28;20031;-79
2024/01/31 17:27:32;;;;;;;8.37;6.73;;;;;;;;;;6320283;28;20099;-80
2024/01/31 17:30:33;;;;;;;8.52;6.85;;;;;;;;;;6331878;28;20455;-83
2024/01/31 17:33:33;;;;;;;8.60;6.87;;;;;;;;;;6324354;28;20038;-83
2024/01/31 17:36:33;;;;;;;9.57;7.13;;;;;;;;;;6328573;28;20027;-83
2024/01/31 17:39:34;;;;;;;8.60;6.77;;;;;;;;;;6319629;28;20040;-81
2024/01/31 17:42:34;;;;;;;8.00;6.97;;;;;;;;;;6327461;28;20464;-82
2024/01/31 17:45:35;;;;;;;7.83;6.97;;;;;;;;;;6318166;28;20028;-81
2024/01/31 17:48:35;;;;;;;9.37;6.57;;;;;;;;;;6302092;28;20016;-80
2024/01/31 17:51:38;;;;;;;9.47;7.00;;;;;;;;;;6319753;28;20028;-81
2024/01/31 17:54:39;;;;;;;11.25;7.07;;;;;;;;;;6319146;28;20027;-83
2024/01/31 17:57:39;;;;;;;9.68;7.18;;;;;;;;;;6315799;28;20373;-82
2024/01/31 18:00:39;;;;;;;10.20;7.30;;;;;;;;;;6318232;28;20028;-83